sensor_id;sensor_type;location;lat;lon;timestamp;P1;durP1;ratioP1;P2;durP2;ratioP2
40154;SDS011;25875;48.202;16.334;2022-09-13T17:37:03;6.90;;;2.65;;
40154;SDS011;25875;48.202;16.334;2022-09-13T17:39:31;3.72;;;2.95;;
40154;SDS011;25875;48.202;16.334;2022-09-13T17:41:59;3.65;;;2.95;;
40154;SDS011;25875;48.202;16.334;2022-09-13T17:44:27;5.68;;;3.22;;
40154;SDS011;25875;48.202;16.334;2022-09-13T17:46:54;4.00;;;3.10;;
40154;SDS011;25875;48.202;16.334;2022-09-13T17:49:21;4.47;;;3.25;;
40154;SDS011;25875;48.202;16.334;2022-09-13T17:51:52;4.47;;;3.33;;
40154;SDS011;25875;48.202;16.334;2022-09-13T17:54:21;5.45;;;2.75;;
40154;SDS011;25875;48.202;16.334;2022-09-13T17:56:48;5.35;;;3.15;;
40154;SDS011;25875;48.202;16.334;2022-09-13T17:59:17;4.47;;;3.05;;
40154;SDS011;25875;48.202;16.334;2022-09-13T18:01:46;3.92;;;3.25;;
40154;SDS011;25875;48.202;16.334;2022-09-13T18:04:16;3.85;;;2.65;;
40154;SDS011;25875;48.202;16.334;2022-09-13T18:06:45;5.00;;;3.28;;
40154;SDS011;25875;48.202;16.334;2022-09-13T18:09:13;4.70;;;3.40;;
40154;SDS011;25875;48.202;16.334;2022-09-13T18:11:43;4.28;;;3.38;;
40154;SDS011;25875;48.202;16.334;2022-09-13T18:14:11;7.30;;;3.60;;
40154;SDS011;25875;48.202;16.334;2022-09-13T18:16:40;7.10;;;3.30;;
40154;SDS011;25875;48.202;16.334;2022-09-13T18:19:09;4.47;;;3.00;;
40154;SDS011;25875;48.202;16.334;2022-09-13T18:21:37;4.45;;;3.28;;
40154;SDS011;25875;48.202;16.334;2022-09-13T18:24:05;4.43;;;3.10;;
40154;SDS011;25875;48.202;16.334;2022-09-13T18:26:33;4.50;;;2.70;;
40154;SDS011;25875;48.202;16.334;2022-09-13T18:29:03;5.45;;;4.15;;
40154;SDS011;25875;48.202;16.334;2022-09-13T18:31:33;6.85;;;3.78;;
40154;SDS011;25875;48.202;16.334;2022-09-13T18:34:02;5.00;;;3.47;;
40154;SDS011;25875;48.202;16.334;2022-09-13T18:36:31;6.63;;;4.47;;
40154;SDS011;25875;48.202;16.334;2022-09-13T18:39:00;6.47;;;4.55;;
40154;SDS011;25875;48.202;16.334;2022-09-13T18:41:30;5.80;;;3.88;;
40154;SDS011;25875;48.202;16.334;2022-09-13T18:43:59;4.15;;;3.42;;
40154;SDS011;25875;48.202;16.334;2022-09-13T18:46:28;4.88;;;4.38;;
40154;SDS011;25875;48.202;16.334;2022-09-13T18:48:56;8.27;;;5.15;;
40154;SDS011;25875;48.202;16.334;2022-09-13T18:51:25;6.60;;;5.03;;
40154;SDS011;25875;48.202;16.334;2022-09-13T18:53:54;8.13;;;5.95;;
40154;SDS011;25875;48.202;16.334;2022-09-13T18:56:24;6.95;;;5.32;;
40154;SDS011;25875;48.202;16.334;2022-09-13T18:58:52;5.45;;;4.57;;
40154;SDS011;25875;48.202;16.334;2022-09-13T19:01:20;5.18;;;3.95;;
40154;SDS011;25875;48.202;16.334;2022-09-13T19:03:51;5.15;;;4.00;;
40154;SDS011;25875;48.202;16.334;2022-09-13T19:06:20;6.50;;;4.32;;
40154;SDS011;25875;48.202;16.334;2022-09-13T19:08:48;5.35;;;3.90;;
40154;SDS011;25875;48.202;16.334;2022-09-13T19:11:17;6.05;;;5.03;;
40154;SDS011;25875;48.202;16.334;2022-09-13T19:13:46;6.97;;;5.43;;
40154;SDS011;25875;48.202;16.334;2022-09-13T19:16:15;8.55;;;5.90;;
40154;SDS011;25875;48.202;16.334;2022-09-13T19:18:44;9.98;;;7.68;;
40154;SDS011;25875;48.202;16.334;2022-09-13T19:21:17;15.20;;;12.20;;
40154;SDS011;25875;48.202;16.334;2022-09-13T19:23:47;8.95;;;7.45;;
40154;SDS011;25875;48.202;16.334;2022-09-13T19:26:17;13.68;;;9.18;;
40154;SDS011;25875;48.202;16.334;2022-09-13T19:28:48;6.40;;;5.43;;
